Time;durP1;ratioP1;P1;durP2;ratioP2;P2;SDS_P1;SDS_P2;PMS_P1;PMS_P2;Temp;Humidity;BMP_temperature;BMP_pressure;BME280_temperature;BME280_humidity;BME280_pressure;Samples;Min_cycle;Max_cycle;Signal;HPM_P1;HPM_P2
2022/11/12 00:00:32;;;;;;;37.20;24.13;;;18.00;60.30;;;;;;5072703;28;20024;-86
2022/11/12 00:02:58;;;;;;;33.42;21.52;;;18.00;60.40;;;;;;5072147;28;20039;-85
2022/11/12 00:05:24;;;;;;;39.33;24.10;;;17.90;60.80;;;;;;5072219;28;20012;-83
2022/11/12 00:07:49;;;;;;;35.95;23.40;;;17.80;61.00;;;;;;5072413;28;20029;-87
2022/11/12 00:10:16;;;;;;;35.72;23.35;;;17.70;61.00;;;;;;5070908;28;20034;-83
2022/11/12 00:12:43;;;;;;;40.03;24.27;;;17.60;61.30;;;;;;5075421;28;20139;-84
2022/11/12 00:15:09;;;;;;;39.33;24.42;;;17.60;61.30;;;;;;5075172;28;20020;-86
2022/11/12 00:17:34;;;;;;;40.00;23.27;;;17.60;61.20;;;;;;5075655;28;20492;-91
2022/11/12 00:20:00;;;;;;;36.58;23.00;;;17.60;61.30;;;;;;5076634;28;20035;-87
2022/11/12 00:22:26;;;;;;;37.40;22.92;;;17.40;61.70;;;;;;5076263;28;20028;-84
2022/11/12 00:24:57;;;;;;;43.72;25.52;;;17.10;62.30;;;;;;5076024;28;20035;-88
2022/11/12 00:27:23;;;;;;;37.25;24.00;;;16.60;63.20;;;;;;5076940;28;20094;-83
2022/11/12 00:29:49;;;;;;;41.58;25.23;;;16.60;63.40;;;;;;5077746;28;20473;-87
2022/11/12 00:32:14;;;;;;;42.20;25.33;;;16.40;64.10;;;;;;5076878;28;20050;-90
2022/11/12 00:34:40;;;;;;;42.85;26.88;;;16.30;64.30;;;;;;5077158;28;20028;-88
2022/11/12 00:37:06;;;;;;;39.40;24.80;;;16.30;64.20;;;;;;5077286;28;20027;-89
2022/11/12 00:39:32;;;;;;;38.97;24.63;;;16.50;64.10;;;;;;5077103;28;20059;-91
2022/11/12 00:41:57;;;;;;;41.42;24.95;;;16.70;63.50;;;;;;5075741;28;20024;-87
2022/11/12 00:44:23;;;;;;;40.97;24.75;;;16.70;63.50;;;;;;5076428;28;20561;-91
2022/11/12 00:46:49;;;;;;;37.67;24.50;;;16.60;63.60;;;;;;5078511;28;20059;-92
2022/11/12 00:49:15;;;;;;;41.15;25.23;;;16.80;63.40;;;;;;5079365;28;20387;-87
2022/11/12 00:51:41;;;;;;;37.70;24.02;;;16.90;62.70;;;;;;5079452;28;20077;-90
2022/11/12 00:54:07;;;;;;;39.28;25.05;;;16.80;62.40;;;;;;5079215;28;20024;-84
2022/11/12 00:56:33;;;;;;;39.60;24.92;;;16.60;63.50;;;;;;5079472;28;20430;-91
2022/11/12 00:58:59;;;;;;;39.97;25.45;;;16.70;63.10;;;;;;5079333;28;20032;-86
2022/11/12 01:01:25;;;;;;;39.65;25.25;;;16.90;62.70;;;;;;5079150;28;20020;-91
2022/11/12 01:03:52;;;;;;;41.40;25.50;;;17.00;62.40;;;;;;5078970;28;20028;-92
2022/11/12 01:06:22;;;;;;;43.80;24.70;;;17.10;62.50;;;;;;5079011;28;20020;-93
2022/11/12 01:08:48;;;;;;;39.42;25.42;;;17.20;62.00;;;;;;5078669;28;20455;-86
2022/11/12 01:11:17;;;;;;;36.90;23.70;;;17.20;61.70;;;;;;5078786;28;20048;-86
2022/11/12 01:13:45;;;;;;;38.72;23.67;;;17.00;61.60;;;;;;5078617;28;20028;-89
2022/11/12 01:16:16;;;;;;;39.00;24.13;;;16.90;62.20;;;;;;5079337;28;20039;-90
2022/11/12 01:18:43;;;;;;;38.17;24.02;;;16.80;62.50;;;;;;5078962;28;20117;-87
2022/11/12 01:21:09;;;;;;;38.78;22.90;;;16.70;62.60;;;;;;5078609;28;20546;-89
2022/11/12 01:23:37;;;;;;;38.20;22.92;;;16.60;62.90;;;;;;5079064;28;20146;-94
2022/11/12 01:26:09;;;;;;;38.63;23.88;;;16.30;63.70;;;;;;5079437;28;20477;-88
2022/11/12 01:28:35;;;;;;;45.75;26.70;;;16.20;63.50;;;;;;5080672;28;20020;-84
2022/11/12 01:31:11;;;;;;;38.15;23.75;;;16.10;64.10;;;;;;5064277;28;20031;-85
2022/11/12 01:33:37;;;;;;;37.05;24.02;;;16.10;64.20;;;;;;5082217;28;20031;-85
2022/11/12 01:36:03;;;;;;;37.17;24.30;;;15.90;64.50;;;;;;5063612;28;20109;-89
2022/11/12 01:38:33;;;;;;;40.50;25.05;;;16.00;64.70;;;;;;5080543;28;20059;-89
2022/11/12 01:40:59;;;;;;;45.67;25.88;;;15.90;64.60;;;;;;5080519;28;20222;-93
2022/11/12 01:43:24;;;;;;;42.05;25.70;;;15.80;65.20;;;;;;5091557;28;20714;-85
2022/11/12 01:45:51;;;;;;;43.65;25.42;;;15.90;64.70;;;;;;5099067;28;20024;-88
2022/11/12 01:48:40;;;;;;;43.85;25.92;;;16.00;64.60;;;;;;5098721;28;20073;-85
2022/11/12 01:51:06;;;;;;;39.58;25.40;;;15.90;64.70;;;;;;5098161;28;20020;-88
2022/11/12 01:53:37;;;;;;;45.15;27.13;;;15.90;64.80;;;;;;5098682;28;20020;-88
2022/11/12 01:56:05;;;;;;;39.97;25.02;;;15.90;64.90;;;;;;5098253;28;20028;-87
2022/11/12 01:58:33;;;;;;;38.80;23.80;;;16.00;64.30;;;;;;5096982;28;20130;-87
2022/11/12 02:01:00;;;;;;;41.08;25.98;;;16.10;64.30;;;;;;5098056;28;20023;-90
2022/11/12 02:03:26;;;;;;;46.15;27.00;;;16.10;63.70;;;;;;5097788;28;20038;-85
2022/11/12 02:05:57;;;;;;;42.53;27.30;;;16.20;63.90;;;;;;5097920;28;20032;-85
2022/11/12 02:08:23;;;;;;;41.03;26.05;;;16.40;63.60;;;;;;5097814;28;20016;-94
2022/11/12 02:10:50;;;;;;;41.47;24.73;;;16.60;62.80;;;;;;5098308;28;20071;-83
2022/11/12 02:16:03;;;;;;;45.13;25.67;;;16.00;63.80;;;;;;5116151;28;20088;-85
2022/11/12 02:18:29;;;;;;;42.83;26.92;;;15.90;64.30;;;;;;5097587;28;20131;-83
2022/11/12 02:20:57;;;;;;;47.72;29.52;;;16.10;63.70;;;;;;5097230;28;20023;-86
2022/11/12 02:23:23;;;;;;;39.28;25.60;;;16.30;63.00;;;;;;5097571;28;20024;-88
2022/11/12 02:25:48;;;;;;;40.78;25.60;;;16.50;62.70;;;;;;5097791;28;20433;-89
2022/11/12 02:28:15;;;;;;;42.65;26.63;;;16.40;62.60;;;;;;5097991;28;20027;-84
2022/11/12 02:30:46;;;;;;;45.65;28.08;;;16.30;62.80;;;;;;5097657;28;20020;-93
2022/11/12 02:33:12;;;;;;;39.33;25.92;;;16.30;62.90;;;;;;5097315;28;20035;-83
2022/11/12 02:35:38;;;;;;;45.20;27.02;;;16.30;62.60;;;;;;5097708;28;20446;-93
2022/11/12 02:38:04;;;;;;;42.65;27.65;;;16.40;62.40;;;;;;5099153;28;20043;-82
2022/11/12 02:40:30;;;;;;;42.67;26.77;;;16.40;62.30;;;;;;5098607;28;20388;-82
2022/11/12 02:42:56;;;;;;;46.95;27.15;;;16.20;62.50;;;;;;5098123;28;20465;-83
2022/11/12 02:45:22;;;;;;;42.03;27.13;;;15.80;63.50;;;;;;5097864;28;20027;-85
2022/11/12 02:47:47;;;;;;;49.17;28.17;;;15.50;64.10;;;;;;5097475;28;20032;-92
2022/11/12 02:50:14;;;;;;;44.78;26.70;;;15.30;64.60;;;;;;5097696;28;20077;-91
2022/11/12 02:52:39;;;;;;;44.38;27.45;;;15.20;64.70;;;;;;5097728;28;20027;-89
2022/11/12 02:55:07;;;;;;;43.92;27.45;;;15.30;64.80;;;;;;5098299;28;20034;-81
2022/11/12 02:57:38;;;;;;;44.22;27.42;;;15.20;64.80;;;;;;5098439;28;20027;-83
2022/11/12 03:00:04;;;;;;;;;;;15.30;64.60;;;;;;5098774;28;20047;-87
2022/11/12 03:02:30;;;;;;;44.45;26.48;;;15.20;65.20;;;;;;5098122;28;20271;-94
2022/11/12 03:04:56;;;;;;;44.55;27.20;;;15.20;64.90;;;;;;5097142;28;20031;-82
2022/11/12 03:07:22;;;;;;;50.70;27.67;;;15.00;65.80;;;;;;5099646;28;20059;-86
2022/11/12 03:09:47;;;;;;;53.00;29.42;;;14.90;65.80;;;;;;5098093;28;20028;-85
2022/11/12 03:12:13;;;;;;;43.22;27.35;;;15.00;66.00;;;;;;5097399;28;20400;-84
2022/11/12 03:14:39;;;;;;;47.03;26.42;;;15.20;65.10;;;;;;5097292;28;20023;-84
2022/11/12 03:17:04;;;;;;;51.97;29.00;;;15.30;64.80;;;;;;5097456;28;20030;-87
2022/11/12 03:19:30;;;;;;;46.60;29.90;;;15.10;65.10;;;;;;5097020;28;20031;-89
2022/11/12 03:21:56;;;;;;;45.05;27.60;;;15.10;65.60;;;;;;5098240;28;20388;-84
2022/11/12 03:24:21;;;;;;;45.13;27.58;;;15.30;65.30;;;;;;5098816;28;20439;-83
2022/11/12 03:26:47;;;;;;;44.67;28.30;;;15.20;64.90;;;;;;5097321;28;20024;-92
2022/11/12 03:29:13;;;;;;;41.97;26.95;;;15.00;65.40;;;;;;5097043;28;20077;-83
2022/11/12 03:31:38;;;;;;;47.95;27.30;;;15.00;65.40;;;;;;5096674;28;20016;-83
2022/11/12 03:34:04;;;;;;;48.55;29.25;;;14.90;65.50;;;;;;5097539;28;20035;-83
2022/11/12 03:36:30;;;;;;;52.88;30.48;;;14.80;65.60;;;;;;5098350;28;20127;-82
2022/11/12 03:38:56;;;;;;;49.90;28.88;;;14.80;65.30;;;;;;5097942;28;20035;-85
2022/11/12 03:41:21;;;;;;;50.10;29.00;;;14.90;65.20;;;;;;5097869;28;20027;-86
2022/11/12 03:43:48;;;;;;;50.22;29.00;;;14.90;65.30;;;;;;5098695;28;20024;-88
2022/11/12 03:46:14;;;;;;;45.88;29.58;;;14.80;65.30;;;;;;5098678;28;20027;-83
2022/11/12 03:48:39;;;;;;;49.97;29.55;;;14.90;65.20;;;;;;5098131;28;20024;-83
2022/11/12 03:51:05;;;;;;;53.05;31.15;;;14.90;65.10;;;;;;5098989;28;20064;-94
2022/11/12 03:53:31;;;;;;;52.17;31.15;;;14.90;65.00;;;;;;5099455;28;20028;-83
2022/11/12 03:55:57;;;;;;;54.15;31.38;;;14.80;65.10;;;;;;5097256;28;20026;-83
2022/11/12 03:58:22;;;;;;;51.20;30.80;;;14.70;65.10;;;;;;5096276;28;20035;-87
2022/11/12 04:00:48;;;;;;;54.75;32.05;;;14.60;65.70;;;;;;5096590;28;20111;-86
2022/11/12 04:03:13;;;;;;;50.17;31.38;;;14.50;65.90;;;;;;5097184;28;20027;-84
2022/11/12 04:08:37;;;;;;;62.70;32.95;;;14.70;65.00;;;;;;5117212;28;20045;-83
2022/11/12 04:11:05;;;;;;;57.53;31.95;;;14.70;64.80;;;;;;5096960;28;20050;-83
2022/11/12 04:13:32;;;;;;;54.47;31.60;;;14.50;65.70;;;;;;5097225;28;20028;-86
2022/11/12 04:21:51;;;;;;;54.67;32.33;;;14.90;64.70;;;;;;5117065;28;20035;-90
2022/11/12 04:27:16;;;;;;;54.80;31.35;;;15.30;63.70;;;;;;5120370;28;20035;-84
2022/11/12 04:32:28;;;;;;;51.95;30.17;;;15.30;62.50;;;;;;5121179;28;20076;-86
2022/11/12 04:34:55;;;;;;;51.17;29.27;;;15.10;62.80;;;;;;5104434;28;20059;-83
2022/11/12 04:37:22;;;;;;;43.45;27.75;;;14.90;63.30;;;;;;5105064;28;20023;-87
2022/11/12 04:39:49;;;;;;;43.50;27.90;;;14.80;63.50;;;;;;5104596;28;20031;-84
2022/11/12 04:45:05;;;;;;;60.65;33.95;;;14.80;63.40;;;;;;5123018;28;20151;-82
2022/11/12 04:47:34;;;;;;;62.38;34.65;;;14.80;63.50;;;;;;5101542;28;20402;-86
2022/11/12 04:50:00;;;;;;;64.40;33.47;;;14.80;63.70;;;;;;5104140;28;20024;-84
2022/11/12 04:52:28;;;;;;;68.50;33.08;;;14.90;63.70;;;;;;5104578;28;20054;-83
2022/11/12 04:54:54;;;;;;;57.03;30.40;;;15.00;63.20;;;;;;5101203;28;20475;-87
2022/11/12 04:57:20;;;;;;;52.80;31.40;;;15.20;62.30;;;;;;5084679;28;20027;-85
2022/11/12 04:59:46;;;;;;;49.40;29.90;;;15.30;62.30;;;;;;5082473;28;20028;-85
2022/11/12 05:02:11;;;;;;;49.53;29.85;;;15.30;61.20;;;;;;5081367;28;20028;-83
2022/11/12 05:04:38;;;;;;;44.88;28.13;;;15.20;61.80;;;;;;5080759;28;20031;-86
2022/11/12 05:07:04;;;;;;;44.90;25.98;;;15.30;61.40;;;;;;5099765;28;20020;-83
2022/11/12 05:09:32;;;;;;;38.58;22.95;;;15.20;61.70;;;;;;5085878;28;20008;-93
2022/11/12 05:12:00;;;;;;;42.35;24.20;;;15.10;61.80;;;;;;5086236;28;20048;-83
2022/11/12 05:14:26;;;;;;;44.35;24.10;;;15.00;62.20;;;;;;5102967;28;20115;-88
2022/11/12 05:16:52;;;;;;;35.13;21.08;;;15.00;62.30;;;;;;5083545;28;20056;-86
2022/11/12 05:19:18;;;;;;;46.60;24.23;;;15.20;61.80;;;;;;5084749;28;20040;-90
2022/11/12 05:24:37;;;;;;;45.72;26.08;;;15.40;62.10;;;;;;5088357;28;20112;-84
2022/11/12 05:27:05;;;;;;;40.53;24.98;;;15.30;62.00;;;;;;5082556;28;20085;-84
2022/11/12 05:29:31;;;;;;;50.72;28.13;;;15.10;62.90;;;;;;5082700;28;20115;-85
2022/11/12 05:31:56;;;;;;;41.38;26.23;;;15.10;63.10;;;;;;5081718;28;20059;-85
2022/11/12 05:34:22;;;;;;;53.20;29.33;;;15.30;62.50;;;;;;5080834;28;20028;-84
2022/11/12 05:36:48;;;;;;;255.68;111.10;;;15.40;62.30;;;;;;5081326;28;20024;-83
2022/11/12 05:39:13;;;;;;;220.32;93.47;;;15.60;61.90;;;;;;5083374;28;20063;-85
2022/11/12 05:41:39;;;;;;;337.20;134.02;;;15.80;62.00;;;;;;5080661;28;20119;-84
2022/11/12 05:44:05;;;;;;;141.68;66.60;;;15.90;61.80;;;;;;5079741;28;20024;-87
2022/11/12 05:46:34;;;;;;;105.15;36.03;;;16.00;61.50;;;;;;5082414;28;20021;-84
2022/11/12 05:49:02;;;;;;;107.78;33.70;;;16.00;61.50;;;;;;5088250;28;20024;-83
2022/11/12 05:51:29;;;;;;;111.30;35.60;;;16.00;61.90;;;;;;5084185;28;20028;-83
2022/11/12 05:53:54;;;;;;;102.97;42.95;;;16.00;61.80;;;;;;5082847;28;20054;-84
2022/11/12 05:56:20;;;;;;;258.50;56.00;;;15.80;62.90;;;;;;5080079;28;20421;-82
2022/11/12 05:58:46;;;;;;;156.52;42.35;;;15.90;63.00;;;;;;5079169;28;20543;-85
2022/11/12 06:01:12;;;;;;;202.68;80.88;;;16.00;62.50;;;;;;5077941;28;20024;-83
2022/11/12 06:03:37;;;;;;;206.73;79.80;;;16.10;62.60;;;;;;5077776;28;20503;-83
2022/11/12 06:06:03;;;;;;;165.40;54.47;;;16.20;61.90;;;;;;5080338;28;20026;-82
2022/11/12 06:08:29;;;;;;;112.10;41.63;;;16.30;62.10;;;;;;5077806;28;20017;-84
2022/11/12 06:10:55;;;;;;;106.28;38.28;;;16.40;61.90;;;;;;5075965;28;20044;-84
2022/11/12 06:13:23;;;;;;;150.82;49.67;;;16.50;61.70;;;;;;5075313;28;20032;-85
2022/11/12 06:15:48;;;;;;;131.45;41.55;;;16.50;61.80;;;;;;5075169;28;20408;-87
2022/11/12 06:18:14;;;;;;;102.28;38.45;;;16.60;61.70;;;;;;5060268;28;20480;-83
2022/11/12 06:20:43;;;;;;;88.45;36.83;;;16.60;61.90;;;;;;5079822;28;20029;-83
2022/11/12 06:23:09;;;;;;;76.78;35.92;;;16.60;62.00;;;;;;5077276;28;20138;-85
2022/11/12 06:25:34;;;;;;;81.25;33.90;;;16.60;61.70;;;;;;5076108;28;20433;-84
2022/11/12 06:28:00;;;;;;;84.50;32.40;;;16.10;62.80;;;;;;5078053;28;20021;-83
2022/11/12 06:30:26;;;;;;;106.80;36.60;;;15.80;63.70;;;;;;5080221;28;20115;-85
2022/11/12 06:32:52;;;;;;;57.28;31.10;;;16.10;63.20;;;;;;5080152;28;20145;-84
2022/11/12 06:35:18;;;;;;;59.65;31.33;;;16.40;62.70;;;;;;5077454;28;20078;-86
2022/11/12 06:37:48;;;;;;;62.75;30.52;;;16.70;62.10;;;;;;5063215;28;20037;-86
2022/11/12 06:40:14;;;;;;;68.50;31.48;;;16.90;61.60;;;;;;5063186;28;20055;-87
2022/11/12 06:42:40;;;;;;;60.67;31.00;;;16.90;61.40;;;;;;4726214;28;9999598;-84
2022/11/12 06:45:06;;;;;;;57.15;28.48;;;16.70;61.60;;;;;;5077024;28;20043;-90
2022/11/12 06:47:32;;;;;;;55.83;29.08;;;16.60;61.80;;;;;;5076741;28;20024;-84
2022/11/12 06:49:58;;;;;;;82.03;32.05;;;16.50;61.80;;;;;;5057359;28;20043;-90
2022/11/12 06:52:24;;;;;;;67.88;30.80;;;16.60;61.90;;;;;;5076725;28;20480;-95
2022/11/12 06:54:49;;;;;;;75.10;30.60;;;16.80;61.80;;;;;;5076467;28;20021;-84
2022/11/12 06:57:15;;;;;;;62.53;28.08;;;16.80;61.50;;;;;;5075578;28;20035;-85
2022/11/12 06:59:41;;;;;;;65.53;30.02;;;16.90;61.10;;;;;;5075260;28;20032;-85
2022/11/12 07:02:06;;;;;;;56.03;28.58;;;17.00;61.10;;;;;;5077553;28;20119;-84
2022/11/12 07:04:32;;;;;;;48.92;27.52;;;17.10;60.90;;;;;;5076625;28;20055;-88
2022/11/12 07:06:58;;;;;;;55.45;29.17;;;17.20;60.80;;;;;;5076589;28;20052;-85
2022/11/12 07:09:24;;;;;;;47.58;26.48;;;17.30;60.30;;;;;;5078575;28;20024;-84
2022/11/12 07:11:50;;;;;;;52.72;28.20;;;17.30;60.10;;;;;;5076016;28;20044;-85
2022/11/12 07:14:17;;;;;;;59.65;27.52;;;17.30;60.40;;;;;;5079488;28;20024;-86
2022/11/12 07:16:42;;;;;;;53.65;28.33;;;17.40;60.20;;;;;;5077117;28;20008;-85
2022/11/12 07:19:09;;;;;;;55.60;28.58;;;17.60;59.80;;;;;;5080657;28;20036;-86
2022/11/12 07:21:35;;;;;;;50.88;28.52;;;17.70;59.80;;;;;;5075510;28;20049;-86
2022/11/12 07:24:01;;;;;;;68.47;30.60;;;17.80;59.80;;;;;;5075949;28;20085;-85
2022/11/12 07:26:37;;;;;;;54.22;29.38;;;17.90;59.60;;;;;;5074929;28;20036;-84
2022/11/12 07:29:03;;;;;;;43.80;27.23;;;18.00;59.30;;;;;;5060329;28;20055;-87
2022/11/12 07:31:29;;;;;;;42.72;27.40;;;17.80;59.30;;;;;;5075791;28;20020;-86
2022/11/12 07:33:54;;;;;;;48.30;28.13;;;17.80;59.60;;;;;;5075345;28;20389;-85
2022/11/12 07:36:21;;;;;;;45.90;26.58;;;17.80;59.60;;;;;;5074350;28;20017;-86
2022/11/12 07:38:51;;;;;;;42.45;28.48;;;18.00;59.20;;;;;;5073696;28;20119;-86
2022/11/12 07:41:19;;;;;;;37.95;25.63;;;17.70;59.60;;;;;;5075406;28;20025;-85
2022/11/12 07:43:48;;;;;;;45.13;28.50;;;17.30;60.50;;;;;;5076548;28;20040;-85
2022/11/12 07:46:17;;;;;;;40.30;26.38;;;17.40;60.40;;;;;;5073648;28;20111;-88
2022/11/12 07:48:45;;;;;;;38.65;25.30;;;17.70;60.30;;;;;;5073533;28;20108;-86
2022/11/12 07:51:26;;;;;;;36.70;23.83;;;17.90;59.50;;;;;;5074112;28;20119;-89
2022/11/12 07:53:52;;;;;;;;;;;18.20;59.10;;;;;;5074203;28;20032;-87
2022/11/12 07:56:21;;;;;;;36.95;24.17;;;18.20;58.90;;;;;;5076107;28;19974;-94
2022/11/12 07:58:47;;;;;;;35.97;24.00;;;18.30;59.10;;;;;;5076982;28;20036;-88
2022/11/12 08:01:24;;;;;;;35.10;24.75;;;18.50;59.00;;;;;;5078011;28;20017;-87
2022/11/12 08:03:50;;;;;;;34.97;22.95;;;18.70;58.50;;;;;;5076890;28;20051;-85
2022/11/12 08:06:16;;;;;;;35.88;23.05;;;18.80;58.40;;;;;;5076910;28;20025;-85
2022/11/12 08:08:42;;;;;;;37.30;24.75;;;18.90;58.30;;;;;;5076884;28;20036;-85
2022/11/12 08:11:08;;;;;;;29.73;21.95;;;19.10;58.20;;;;;;5078259;28;20028;-85
2022/11/12 08:13:33;;;;;;;35.80;23.58;;;19.20;57.80;;;;;;5079098;28;20078;-85
2022/11/12 08:15:59;;;;;;;37.28;23.95;;;19.40;57.70;;;;;;5078306;28;20465;-89
2022/11/12 08:18:26;;;;;;;29.83;20.13;;;19.20;57.60;;;;;;5077173;28;20094;-87
2022/11/12 08:20:57;;;;;;;34.88;22.20;;;18.70;58.50;;;;;;5076626;28;20374;-87
2022/11/12 08:23:23;;;;;;;37.20;22.00;;;18.70;58.90;;;;;;5076408;28;20017;-85
2022/11/12 08:25:56;;;;;;;30.60;19.65;;;19.10;58.70;;;;;;5078747;28;20055;-86
2022/11/12 08:28:21;;;;;;;31.17;21.33;;;19.20;58.00;;;;;;5060786;28;20037;-85
2022/11/12 08:30:47;;;;;;;29.80;19.75;;;19.00;58.70;;;;;;5077737;28;20035;-93
2022/11/12 08:33:13;;;;;;;28.48;20.65;;;19.40;57.40;;;;;;5078902;28;20020;-84
2022/11/12 08:35:38;;;;;;;39.40;22.33;;;19.10;58.20;;;;;;5079138;28;20068;-85
2022/11/12 08:38:06;;;;;;;26.23;18.38;;;18.80;58.60;;;;;;5077329;28;20037;-90
2022/11/12 08:40:33;;;;;;;25.38;18.17;;;18.30;59.20;;;;;;4729491;28;10000854;-86
2022/11/12 08:43:05;;;;;;;28.75;18.63;;;18.00;60.30;;;;;;4735304;28;10000536;-89
2022/11/12 08:45:36;;;;;;;54.42;29.55;;;18.00;61.10;;;;;;5078804;28;20074;-93
2022/11/12 08:48:06;;;;;;;26.77;18.25;;;18.20;60.10;;;;;;5076009;28;20105;-88
2022/11/12 08:50:33;;;;;;;41.05;25.27;;;18.00;60.10;;;;;;5075662;28;20035;-92
2022/11/12 08:53:02;;;;;;;31.13;20.15;;;17.60;61.40;;;;;;5075717;28;20036;-85
2022/11/12 08:55:29;;;;;;;24.27;17.08;;;18.10;61.30;;;;;;5076016;28;20115;-91
2022/11/12 08:58:00;;;;;;;24.92;17.73;;;19.20;60.10;;;;;;5075429;28;20064;-88
2022/11/12 09:00:27;;;;;;;23.83;17.13;;;20.80;57.20;;;;;;5092628;28;20251;-86
2022/11/12 09:02:53;;;;;;;27.65;20.40;;;21.90;54.80;;;;;;5075314;28;20035;-85
2022/11/12 09:05:19;;;;;;;26.92;18.48;;;22.80;53.50;;;;;;5092648;28;20037;-94
2022/11/12 09:07:45;;;;;;;24.40;18.70;;;23.40;52.60;;;;;;5091790;28;20032;-91
2022/11/12 09:10:10;;;;;;;25.38;19.25;;;23.70;51.50;;;;;;5092343;28;20474;-88
2022/11/12 09:12:37;;;;;;;27.52;17.60;;;22.50;52.60;;;;;;5079642;28;20039;-87
2022/11/12 09:15:05;;;;;;;24.58;16.73;;;22.60;53.90;;;;;;5081183;28;20480;-91
2022/11/12 09:17:31;;;;;;;22.85;16.92;;;24.00;52.20;;;;;;5081327;28;20020;-87
2022/11/12 09:19:57;;;;;;;24.63;17.05;;;25.70;50.10;;;;;;5080947;28;20039;-89
2022/11/12 09:22:23;;;;;;;22.52;15.30;;;26.90;49.00;;;;;;5080301;28;20111;-89
2022/11/12 09:24:48;;;;;;;23.70;16.05;;;27.30;48.40;;;;;;5080312;28;20024;-90
2022/11/12 09:27:14;;;;;;;21.65;16.73;;;27.00;48.10;;;;;;5081574;28;20020;-88
2022/11/12 09:29:40;;;;;;;24.77;16.65;;;27.00;48.40;;;;;;5080957;28;20028;-89
2022/11/12 09:32:05;;;;;;;26.85;17.15;;;27.20;47.80;;;;;;5081962;28;20174;-85
2022/11/12 09:34:31;;;;;;;24.77;16.83;;;27.40;48.20;;;;;;5080516;28;20028;-91
2022/11/12 09:36:56;;;;;;;24.95;16.80;;;28.30;47.90;;;;;;5080562;28;20495;-84
2022/11/12 09:39:22;;;;;;;23.25;16.60;;;28.90;47.10;;;;;;5080711;28;20362;-90
2022/11/12 09:41:48;;;;;;;21.75;15.32;;;29.50;46.00;;;;;;5079569;28;20043;-89
2022/11/12 09:44:18;;;;;;;23.05;15.88;;;30.00;45.70;;;;;;5079761;28;20469;-89
2022/11/12 09:46:56;;;;;;;25.35;18.50;;;30.10;45.60;;;;;;5079560;28;20028;-86
2022/11/12 09:49:31;;;;;;;25.38;17.40;;;29.90;45.60;;;;;;5080071;28;20032;-89
2022/11/12 09:52:13;;;;;;;23.45;16.63;;;29.40;45.40;;;;;;5081927;28;20024;-83
2022/11/12 09:54:40;;;;;;;21.63;16.58;;;28.90;46.20;;;;;;5079617;28;20115;-87
2022/11/12 09:57:11;;;;;;;23.35;17.17;;;28.70;46.80;;;;;;5079047;28;20024;-86
2022/11/12 09:59:39;;;;;;;;;;;29.40;46.40;;;;;;5080733;28;20032;-84
2022/11/12 10:02:30;;;;;;;23.67;16.02;;;29.80;45.50;;;;;;5080922;28;19908;-89
2022/11/12 10:05:14;;;;;;;24.95;17.63;;;29.50;45.70;;;;;;5083628;28;20047;-87
2022/11/12 10:08:10;;;;;;;26.13;17.45;;;29.00;45.70;;;;;;5079608;28;20605;-90
2022/11/12 10:10:58;;;;;;;27.85;18.30;;;28.40;46.30;;;;;;5080657;28;20089;-94
2022/11/12 10:13:43;;;;;;;23.90;17.67;;;27.50;47.30;;;;;;5081429;28;20080;-84
2022/11/12 10:16:44;;;;;;;28.45;17.75;;;26.40;48.40;;;;;;5080749;28;20369;-87
2022/11/12 10:19:48;;;;;;;26.80;18.73;;;24.90;49.90;;;;;;5080359;28;20036;-86
2022/11/12 10:23:01;;;;;;;29.55;19.77;;;23.80;51.60;;;;;;5079336;28;20059;-89
2022/11/12 10:25:27;;;;;;;30.73;19.63;;;23.00;53.10;;;;;;5020909;28;20084;-86
2022/11/12 10:27:54;;;;;;;27.90;18.52;;;22.80;53.60;;;;;;5021136;28;20026;-86
2022/11/12 10:30:22;;;;;;;28.33;20.40;;;22.70;54.20;;;;;;5020988;28;20029;-88
2022/11/12 10:32:50;;;;;;;26.15;19.45;;;22.60;54.30;;;;;;5020922;28;20033;-85
2022/11/12 10:35:22;;;;;;;29.67;19.50;;;22.20;54.70;;;;;;5037176;28;20398;-89
2022/11/12 10:37:56;;;;;;;31.52;19.70;;;22.10;55.50;;;;;;5024897;28;20029;-92
2022/11/12 10:40:39;;;;;;;27.13;19.73;;;22.00;54.80;;;;;;5025580;28;20033;-89
2022/11/12 10:43:20;;;;;;;30.27;20.52;;;21.70;56.20;;;;;;5041221;28;20029;-89
2022/11/12 10:45:47;;;;;;;33.95;22.17;;;22.10;55.60;;;;;;5041138;28;20033;-92
2022/11/12 10:48:27;;;;;;;29.30;21.20;;;22.60;54.90;;;;;;5041418;28;20029;-89
2022/11/12 10:50:53;;;;;;;34.20;22.27;;;22.80;54.00;;;;;;5040695;28;20071;-91
2022/11/12 10:53:34;;;;;;;32.85;21.63;;;22.90;54.30;;;;;;5042631;28;20096;-91
2022/11/12 10:56:03;;;;;;;29.52;20.42;;;22.80;53.80;;;;;;5070618;28;20032;-89
2022/11/12 10:58:29;;;;;;;32.25;21.17;;;22.40;54.30;;;;;;5104546;28;20028;-90
2022/11/12 11:01:02;;;;;;;45.33;40.03;;;22.00;54.80;;;;;;5103989;28;20049;-88
2022/11/12 11:03:35;;;;;;;32.58;20.88;;;21.60;55.50;;;;;;5101144;28;20019;-93
2022/11/12 11:06:16;;;;;;;29.27;20.40;;;21.40;56.20;;;;;;5101164;28;20032;-88
2022/11/12 11:08:50;;;;;;;30.85;19.83;;;21.80;56.00;;;;;;5099124;28;20026;-88
2022/11/12 11:11:20;;;;;;;31.48;20.33;;;22.10;55.40;;;;;;5098600;28;20047;-88
2022/11/12 11:13:48;;;;;;;29.13;20.63;;;22.40;55.90;;;;;;5099590;28;20087;-85
2022/11/12 11:16:20;;;;;;;29.35;20.05;;;22.20;55.10;;;;;;5098149;28;20118;-87
2022/11/12 11:18:51;;;;;;;32.13;20.00;;;21.80;55.80;;;;;;5098386;28;20410;-87
2022/11/12 11:21:37;;;;;;;29.48;20.40;;;21.80;55.80;;;;;;5102092;28;20031;-85
2022/11/12 11:24:26;;;;;;;32.13;20.90;;;21.70;56.20;;;;;;5099158;28;20093;-84
2022/11/12 11:27:14;;;;;;;30.88;20.38;;;21.80;56.20;;;;;;5085285;28;20035;-85
2022/11/12 11:29:53;;;;;;;30.00;19.52;;;21.70;56.30;;;;;;5097813;28;20028;-85
2022/11/12 11:32:25;;;;;;;28.48;18.50;;;20.70;57.20;;;;;;5088633;28;20103;-87
2022/11/12 11:35:14;;;;;;;26.80;18.50;;;20.10;58.50;;;;;;5077565;28;20032;-82
2022/11/12 11:38:09;;;;;;;30.27;20.02;;;19.60;59.80;;;;;;5077312;28;20082;-88
2022/11/12 11:40:50;;;;;;;31.70;19.70;;;19.40;60.30;;;;;;5078115;28;20035;-89
2022/11/12 11:43:43;;;;;;;28.90;19.67;;;19.10;60.80;;;;;;5075795;28;20071;-86
2022/11/12 11:46:32;;;;;;;33.65;20.63;;;19.50;60.00;;;;;;5075324;28;20113;-85
2022/11/12 11:49:09;;;;;;;35.92;21.33;;;20.10;59.40;;;;;;5075797;28;20523;-84
2022/11/12 11:51:51;;;;;;;40.55;23.98;;;20.80;57.80;;;;;;5077546;28;20022;-92
2022/11/12 11:54:37;;;;;;;29.88;20.67;;;21.10;57.10;;;;;;5075851;28;20024;-83
2022/11/12 11:57:11;;;;;;;36.45;21.10;;;21.30;56.90;;;;;;5076445;28;20024;-90
2022/11/12 12:00:04;;;;;;;36.30;22.25;;;21.40;57.10;;;;;;5079597;28;20104;-85
2022/11/12 12:03:06;;;;;;;33.50;21.30;;;21.80;56.50;;;;;;5081947;28;20452;-84
2022/11/12 12:05:42;;;;;;;34.17;23.17;;;22.10;56.10;;;;;;5000539;28;20038;-85
2022/11/12 12:08:23;;;;;;;30.58;20.65;;;22.50;56.10;;;;;;4995801;28;20532;-90
2022/11/12 12:11:03;;;;;;;31.40;20.92;;;22.70;55.20;;;;;;4995356;28;20442;-87
2022/11/12 12:13:50;;;;;;;32.22;20.40;;;22.80;54.10;;;;;;4995129;28;20026;-81
2022/11/12 12:16:24;;;;;;;37.97;21.83;;;22.50;55.30;;;;;;4995070;28;20382;-82
2022/11/12 12:19:12;;;;;;;30.90;20.15;;;22.50;55.10;;;;;;5011934;28;20038;-83
2022/11/12 12:21:42;;;;;;;29.25;20.08;;;22.50;55.10;;;;;;4995625;28;20395;-84
2022/11/12 12:24:29;;;;;;;29.80;18.88;;;22.60;55.10;;;;;;5010765;28;20030;-81
2022/11/12 12:27:08;;;;;;;33.10;19.83;;;22.70;54.80;;;;;;4987884;28;20034;-93
2022/11/12 12:29:47;;;;;;;45.77;28.70;;;22.70;54.40;;;;;;4984632;28;20486;-91
2022/11/12 12:32:14;;;;;;;40.47;26.35;;;21.80;55.60;;;;;;4991628;28;20173;-89
2022/11/12 12:34:47;;;;;;;37.47;22.52;;;21.50;56.60;;;;;;4987939;28;20053;-84
2022/11/12 12:37:21;;;;;;;31.23;19.58;;;21.50;57.00;;;;;;5011568;28;20803;-84
2022/11/12 12:40:00;;;;;;;32.40;20.23;;;21.40;57.20;;;;;;4987882;28;20050;-88
2022/11/12 12:43:00;;;;;;;28.30;18.50;;;21.70;57.40;;;;;;5039854;28;20469;-81
2022/11/12 12:45:38;;;;;;;29.60;18.87;;;21.80;56.30;;;;;;5080545;28;20043;-81
2022/11/12 12:48:07;;;;;;;30.08;18.27;;;21.80;56.40;;;;;;5078348;28;20032;-86
2022/11/12 12:50:37;;;;;;;28.25;19.65;;;21.90;55.90;;;;;;5078189;28;20077;-82
2022/11/12 12:53:14;;;;;;;32.60;19.57;;;21.70;56.10;;;;;;5078532;28;20044;-88
2022/11/12 12:55:41;;;;;;;35.00;21.45;;;21.30;56.90;;;;;;5081186;28;20030;-84
2022/11/12 12:58:19;;;;;;;29.55;20.60;;;21.50;56.90;;;;;;5098478;28;20059;-84
2022/11/12 13:00:50;;;;;;;36.17;21.45;;;21.80;56.50;;;;;;5078420;28;20027;-84
2022/11/12 13:03:44;;;;;;;37.03;22.20;;;22.20;55.90;;;;;;5096666;28;20376;-89